createdAt,value
2018-09-06T00:02:24.467Z,17.02
2018-09-06T00:04:52.820Z,16.98
2018-09-06T00:07:21.082Z,16.95
2018-09-06T00:09:49.434Z,16.89
2018-09-06T00:12:17.710Z,16.93
2018-09-06T00:14:46.003Z,16.83
2018-09-06T00:17:14.262Z,16.93
2018-09-06T00:19:42.643Z,16.94
2018-09-06T00:22:10.915Z,16.90
2018-09-06T00:24:39.295Z,16.81
2018-09-06T00:27:08.602Z,16.85
2018-09-06T00:29:37.059Z,16.95
2018-09-06T00:32:05.418Z,16.88
2018-09-06T00:34:33.746Z,16.87
2018-09-06T00:37:02.019Z,16.88
2018-09-06T00:39:31.711Z,16.82
2018-09-06T00:41:59.995Z,16.78
2018-09-06T00:44:28.263Z,16.75
2018-09-06T00:46:56.570Z,16.77
2018-09-06T00:49:24.866Z,16.77
2018-09-06T00:51:53.165Z,16.69
2018-09-06T00:54:21.473Z,16.62
2018-09-06T00:56:49.821Z,16.64
2018-09-06T00:59:22.293Z,16.68
2018-09-06T01:01:50.575Z,16.65
2018-09-06T01:04:18.845Z,16.65
2018-09-06T01:06:47.165Z,16.62
2018-09-06T01:09:15.625Z,16.56
2018-09-06T01:11:43.897Z,16.47
2018-09-06T01:14:12.473Z,16.54
2018-09-06T01:16:40.773Z,16.50
2018-09-06T01:19:09.061Z,16.59
2018-09-06T01:21:37.601Z,16.49
2018-09-06T01:24:06.193Z,16.52
2018-09-06T01:26:34.465Z,16.41
2018-09-06T01:29:02.802Z,16.41
2018-09-06T01:31:31.131Z,16.39
2018-09-06T01:33:59.406Z,16.36
2018-09-06T01:36:32.960Z,16.33
2018-09-06T01:39:01.357Z,16.28
2018-09-06T01:41:29.655Z,16.22
2018-09-06T01:43:57.937Z,16.26
2018-09-06T01:46:26.222Z,16.23
2018-09-06T01:48:54.511Z,16.24
2018-09-06T01:51:22.787Z,16.21
2018-09-06T01:53:51.094Z,16.20
2018-09-06T01:56:19.397Z,16.18
2018-09-06T01:58:47.740Z,16.17
2018-09-06T02:01:16.158Z,16.14
2018-09-06T02:03:44.907Z,16.12
2018-09-06T02:06:13.206Z,16.22
2018-09-06T02:08:41.670Z,16.21
2018-09-06T02:11:09.943Z,16.16
2018-09-06T02:13:38.252Z,16.19
2018-09-06T02:16:06.663Z,16.12
2018-09-06T02:18:34.988Z,16.07
2018-09-06T02:21:03.417Z,15.97
2018-09-06T02:23:32.027Z,15.98
2018-09-06T02:26:00.338Z,16.08
2018-09-06T02:28:28.621Z,15.97
2018-09-06T02:30:56.906Z,15.93
2018-09-06T02:33:25.269Z,15.95
2018-09-06T02:35:53.545Z,16.01
2018-09-06T02:38:21.969Z,15.94
2018-09-06T02:40:50.255Z,15.93
2018-09-06T02:43:18.560Z,15.92
2018-09-06T02:45:46.924Z,15.86
2018-09-06T02:48:15.201Z,15.83
2018-09-06T02:50:48.798Z,15.91
2018-09-06T02:53:17.079Z,15.93
2018-09-06T02:55:46.205Z,15.84
2018-09-06T02:58:14.473Z,15.87
2018-09-06T03:00:42.810Z,15.86
2018-09-06T03:03:11.122Z,15.79
2018-09-06T03:05:39.413Z,15.87
2018-09-06T03:08:07.685Z,15.82
2018-09-06T03:10:38.825Z,15.79
2018-09-06T03:13:07.325Z,15.74
2018-09-06T03:15:35.742Z,15.81
2018-09-06T03:18:04.061Z,15.78
2018-09-06T03:20:32.370Z,15.72
2018-09-06T03:23:00.754Z,15.74
2018-09-06T03:25:29.053Z,15.73
2018-09-06T03:27:57.329Z,15.77
2018-09-06T03:30:25.762Z,15.80
2018-09-06T03:32:54.058Z,15.81
2018-09-06T03:35:22.333Z,15.80
2018-09-06T03:37:50.671Z,15.78
2018-09-06T03:40:18.952Z,15.76
2018-09-06T03:42:47.238Z,15.72
2018-09-06T03:45:15.514Z,15.70
2018-09-06T03:47:43.915Z,15.71
2018-09-06T03:50:12.233Z,15.74
2018-09-06T03:52:40.613Z,15.72
2018-09-06T03:55:08.969Z,15.68
2018-09-06T03:57:37.515Z,15.76
2018-09-06T04:00:05.928Z,15.82
2018-09-06T04:02:34.286Z,15.82
2018-09-06T04:05:02.553Z,15.81
2018-09-06T04:07:30.842Z,15.73
2018-09-06T04:09:59.736Z,15.72
2018-09-06T04:12:28.021Z,15.71
2018-09-06T04:14:56.299Z,15.70
2018-09-06T04:17:24.613Z,15.74
2018-09-06T04:19:52.885Z,15.67
2018-09-06T04:22:21.197Z,15.62
2018-09-06T04:24:49.473Z,15.57
2018-09-06T04:27:17.792Z,15.60
2018-09-06T04:29:46.057Z,15.59
2018-09-06T04:32:14.338Z,15.59
2018-09-06T04:34:42.613Z,15.57
2018-09-06T04:37:11.258Z,15.52
2018-09-06T04:39:39.560Z,15.54
2018-09-06T04:42:07.825Z,15.59
2018-09-06T04:44:36.121Z,15.60
2018-09-06T04:47:04.447Z,15.60
2018-09-06T04:49:32.777Z,15.63
2018-09-06T04:52:01.057Z,15.66
2018-09-06T04:54:29.357Z,15.68
2018-09-06T04:56:57.690Z,15.70
2018-09-06T04:59:26.030Z,15.79
2018-09-06T05:01:54.320Z,15.78
2018-09-06T05:04:22.695Z,15.93
2018-09-06T05:06:50.873Z,15.85
2018-09-06T05:09:19.193Z,15.89
2018-09-06T05:11:47.456Z,15.92
2018-09-06T05:14:15.754Z,15.86
2018-09-06T05:16:44.016Z,15.96
2018-09-06T05:19:12.328Z,16.07
2018-09-06T05:21:40.625Z,16.10
2018-09-06T05:24:08.897Z,16.13
2018-09-06T05:26:37.213Z,16.22
2018-09-06T05:29:05.697Z,16.33
2018-09-06T05:31:34.281Z,16.32
2018-09-06T05:34:02.557Z,16.37
2018-09-06T05:36:30.936Z,16.38
2018-09-06T05:38:59.200Z,16.42
2018-09-06T05:41:27.505Z,16.46
2018-09-06T05:43:55.769Z,16.51
2018-09-06T05:46:24.161Z,16.61
2018-09-06T05:48:52.589Z,16.68
2018-09-06T05:51:20.921Z,16.68
2018-09-06T05:53:49.205Z,16.78
2018-09-06T05:56:17.508Z,16.80
2018-09-06T05:58:45.780Z,16.96
2018-09-06T06:01:14.077Z,17.08
2018-09-06T06:03:42.453Z,17.14
2018-09-06T06:06:10.758Z,17.25
2018-09-06T06:08:41.636Z,17.27
2018-09-06T06:11:09.965Z,17.37
2018-09-06T06:13:38.263Z,17.52
2018-09-06T06:16:06.692Z,17.43
2018-09-06T06:18:35.008Z,17.46
2018-09-06T06:21:03.400Z,17.66
2018-09-06T06:23:31.710Z,17.73
2018-09-06T06:26:00.052Z,17.71
2018-09-06T06:28:28.303Z,17.88
2018-09-06T06:30:56.581Z,17.81
2018-09-06T06:33:24.893Z,17.82
2018-09-06T06:35:54.175Z,18.03
2018-09-06T06:38:22.450Z,18.27
2018-09-06T06:40:50.733Z,18.44
2018-09-06T06:43:19.090Z,18.35
2018-09-06T06:45:47.369Z,18.48
2018-09-06T06:48:15.673Z,18.79
2018-09-06T06:50:44.053Z,18.64
2018-09-06T06:53:12.376Z,18.95
2018-09-06T06:55:41.041Z,18.83
2018-09-06T06:58:09.365Z,18.69
2018-09-06T07:00:39.609Z,18.95
2018-09-06T07:03:08.993Z,18.90
2018-09-06T07:05:37.476Z,18.99
2018-09-06T07:08:06.686Z,18.93
2018-09-06T07:10:35.009Z,18.76
2018-09-06T07:13:03.428Z,18.93
2018-09-06T07:15:32.805Z,19.05
2018-09-06T07:18:01.227Z,19.18
2018-09-06T07:20:29.559Z,19.17
2018-09-06T07:22:57.881Z,19.39
2018-09-06T07:25:26.369Z,19.56
2018-09-06T07:27:54.643Z,19.51
2018-09-06T07:30:22.935Z,19.29
2018-09-06T07:32:51.244Z,19.59
2018-09-06T07:35:19.645Z,19.64
2018-09-06T07:37:47.937Z,19.57
2018-09-06T07:40:16.257Z,19.66
2018-09-06T07:42:44.549Z,19.61
2018-09-06T07:45:12.868Z,19.75
2018-09-06T07:47:41.189Z,19.67
2018-09-06T07:50:09.599Z,20.05
2018-09-06T07:52:37.881Z,19.92
2018-09-06T07:55:06.217Z,20.19
2018-09-06T07:57:34.534Z,20.37
2018-09-06T08:00:02.809Z,20.37
2018-09-06T08:02:31.205Z,20.44
2018-09-06T08:04:59.525Z,20.26
2018-09-06T08:07:27.848Z,20.24
2018-09-06T08:09:56.753Z,20.41
2018-09-06T08:12:25.090Z,20.70
2018-09-06T08:14:53.479Z,20.85
2018-09-06T08:17:21.769Z,20.80
2018-09-06T08:19:50.043Z,20.95
2018-09-06T08:22:18.348Z,21.30
2018-09-06T08:24:46.675Z,20.94
2018-09-06T08:27:15.001Z,21.58
2018-09-06T08:29:43.366Z,21.47
2018-09-06T08:32:11.681Z,21.56
2018-09-06T08:34:39.956Z,21.73
2018-09-06T08:37:08.260Z,21.69
2018-09-06T08:39:36.573Z,21.68
2018-09-06T08:42:04.865Z,21.83
2018-09-06T08:44:33.140Z,22.10
2018-09-06T08:47:01.706Z,22.21
2018-09-06T08:49:30.087Z,22.09
2018-09-06T08:51:58.713Z,22.32
2018-09-06T08:54:27.230Z,22.07
2018-09-06T08:56:55.561Z,21.76
2018-09-06T08:59:23.905Z,22.01
2018-09-06T09:01:52.249Z,21.86
2018-09-06T09:04:20.794Z,21.64
2018-09-06T09:06:49.114Z,22.04
2018-09-06T09:09:17.477Z,22.06
2018-09-06T09:11:45.814Z,21.96
2018-09-06T09:14:14.109Z,22.08
2018-09-06T09:16:42.525Z,21.95
2018-09-06T09:19:10.865Z,22.23
2018-09-06T09:21:39.176Z,22.19
2018-09-06T09:24:07.513Z,22.20
2018-09-06T09:26:36.275Z,22.26
2018-09-06T09:29:04.611Z,22.39
2018-09-06T09:31:33.030Z,22.25
2018-09-06T09:34:01.405Z,22.45
2018-09-06T09:36:29.676Z,22.64
2018-09-06T09:38:58.060Z,22.88
2018-09-06T09:41:26.337Z,22.62
2018-09-06T09:43:54.758Z,22.94
2018-09-06T09:48:51.158Z,22.92
2018-09-06T09:51:19.661Z,23.20
2018-09-06T09:53:47.925Z,23.61
2018-09-06T09:56:16.473Z,23.36
2018-09-06T09:58:44.765Z,22.84
2018-09-06T10:01:13.038Z,23.22
2018-09-06T10:03:46.565Z,23.16
2018-09-06T10:06:20.099Z,22.97
2018-09-06T10:08:53.535Z,22.92
2018-09-06T10:11:21.834Z,23.26
2018-09-06T10:13:50.132Z,23.30
2018-09-06T10:16:18.433Z,23.62
2018-09-06T10:18:46.839Z,24.07
2018-09-06T10:21:15.125Z,23.54
2018-09-06T10:23:43.401Z,23.63
2018-09-06T10:26:11.854Z,23.39
2018-09-06T10:28:40.129Z,23.82
2018-09-06T10:31:08.401Z,24.11
2018-09-06T10:33:36.906Z,24.10
2018-09-06T10:36:05.173Z,23.61
2018-09-06T10:38:33.440Z,23.75
2018-09-06T10:41:01.717Z,23.61
2018-09-06T10:43:29.990Z,23.56
2018-09-06T10:45:58.269Z,23.51
2018-09-06T10:48:26.643Z,23.72
2018-09-06T10:50:55.992Z,23.87
2018-09-06T10:53:24.348Z,23.53
2018-09-06T10:55:52.998Z,23.72
2018-09-06T10:58:22.420Z,23.40
2018-09-06T11:00:54.853Z,23.95
2018-09-06T11:03:23.166Z,23.97
2018-09-06T11:05:51.449Z,23.80
2018-09-06T11:08:19.764Z,23.54
2018-09-06T11:10:48.030Z,23.92
2018-09-06T11:13:16.321Z,23.92
2018-09-06T11:15:44.609Z,23.98
2018-09-06T11:18:13.955Z,23.73
2018-09-06T11:20:42.545Z,24.35
2018-09-06T11:23:11.057Z,24.16
2018-09-06T11:25:39.350Z,24.42
2018-09-06T11:28:07.857Z,24.70
2018-09-06T11:30:36.125Z,24.37
2018-09-06T11:33:04.405Z,24.48
2018-09-06T11:35:34.126Z,24.76
2018-09-06T11:38:02.446Z,24.27
2018-09-06T11:40:30.779Z,24.36
2018-09-06T11:42:59.065Z,24.31
2018-09-06T11:45:27.352Z,24.85
2018-09-06T11:47:55.707Z,24.41
2018-09-06T11:50:24.647Z,24.42
2018-09-06T11:52:53.011Z,24.89
2018-09-06T11:55:21.303Z,24.84
2018-09-06T11:57:49.617Z,24.75
2018-09-06T12:00:17.939Z,24.33
2018-09-06T12:02:46.263Z,24.35
2018-09-06T12:05:14.526Z,24.57
2018-09-06T12:07:42.828Z,24.43
2018-09-06T12:10:11.146Z,24.47
2018-09-06T12:12:39.604Z,24.70
2018-09-06T12:15:07.927Z,24.92
2018-09-06T12:17:36.281Z,24.36
2018-09-06T12:20:04.557Z,24.67
2018-09-06T12:22:32.937Z,25.00
2018-09-06T12:25:01.213Z,24.72
2018-09-06T12:27:29.516Z,24.82
2018-09-06T12:29:57.823Z,24.88
2018-09-06T12:32:26.119Z,24.75
2018-09-06T12:34:54.400Z,24.74
2018-09-06T12:37:22.670Z,24.49
2018-09-06T12:39:50.974Z,24.85
2018-09-06T12:42:19.264Z,24.70
2018-09-06T12:44:47.719Z,24.94
2018-09-06T12:47:16.010Z,25.25
2018-09-06T12:49:44.378Z,24.75
2018-09-06T12:52:12.604Z,24.76
2018-09-06T12:54:40.936Z,25.19
2018-09-06T12:57:09.223Z,25.21
2018-09-06T12:59:37.523Z,24.94
2018-09-06T13:02:05.805Z,25.01
2018-09-06T13:04:34.097Z,25.42
2018-09-06T13:07:02.592Z,25.70
2018-09-06T13:09:30.882Z,25.34
2018-09-06T13:11:59.261Z,25.30
2018-09-06T13:14:27.782Z,25.45
2018-09-06T13:16:57.137Z,25.58
2018-09-06T13:19:25.530Z,25.47
2018-09-06T13:21:53.811Z,25.38
2018-09-06T13:24:22.082Z,25.77
2018-09-06T13:26:50.452Z,25.76
2018-09-06T13:29:18.740Z,25.59
2018-09-06T13:31:47.081Z,26.39
2018-09-06T13:34:15.369Z,26.91
2018-09-06T13:36:43.710Z,27.39
2018-09-06T13:39:14.151Z,26.59
2018-09-06T13:41:42.445Z,27.24
2018-09-06T13:44:10.766Z,27.93
2018-09-06T13:46:39.059Z,28.91
2018-09-06T13:49:07.337Z,28.69
2018-09-06T13:51:35.689Z,27.60
2018-09-06T13:54:03.961Z,27.03
2018-09-06T13:56:32.232Z,26.33
2018-09-06T13:59:00.629Z,26.82
2018-09-06T14:01:28.925Z,26.56
2018-09-06T14:03:57.179Z,26.74
2018-09-06T14:06:25.661Z,26.98
2018-09-06T14:08:54.006Z,26.88
2018-09-06T14:11:22.261Z,26.92
2018-09-06T14:13:50.561Z,26.90
2018-09-06T14:16:18.850Z,26.97
2018-09-06T14:18:47.134Z,26.26
2018-09-06T14:21:15.388Z,26.06
2018-09-06T14:23:43.666Z,26.31
2018-09-06T14:26:11.937Z,26.71
2018-09-06T14:28:40.213Z,26.70
2018-09-06T14:31:08.509Z,26.50
2018-09-06T14:33:36.794Z,26.14
2018-09-06T14:36:05.109Z,25.34
2018-09-06T14:38:33.418Z,25.44
2018-09-06T14:41:01.694Z,25.42
2018-09-06T14:43:29.974Z,24.94
2018-09-06T14:45:58.377Z,24.95
2018-09-06T14:48:26.730Z,24.93
2018-09-06T14:50:55.139Z,24.77
2018-09-06T14:53:23.352Z,24.76
2018-09-06T14:55:51.661Z,25.09
2018-09-06T14:58:19.942Z,25.46
2018-09-06T15:00:48.243Z,25.70
2018-09-06T15:03:16.597Z,25.59
2018-09-06T15:05:44.913Z,25.77
2018-09-06T15:08:13.197Z,25.63
2018-09-06T15:10:41.474Z,25.67
2018-09-06T15:13:09.816Z,25.25
2018-09-06T15:15:38.112Z,25.79
2018-09-06T15:18:06.661Z,26.43
2018-09-06T15:20:34.950Z,27.10
2018-09-06T15:23:03.531Z,26.95
2018-09-06T15:25:31.817Z,26.90
2018-09-06T15:28:00.109Z,26.51
2018-09-06T15:30:28.389Z,26.66
2018-09-06T15:32:56.723Z,26.50
2018-09-06T15:35:25.016Z,26.60
2018-09-06T15:37:53.291Z,27.36
2018-09-06T15:40:21.741Z,26.89
2018-09-06T15:42:50.029Z,25.93
2018-09-06T15:45:18.345Z,25.00
2018-09-06T15:47:46.817Z,24.67
2018-09-06T15:50:15.092Z,24.86
2018-09-06T15:52:43.479Z,25.18
2018-09-06T15:55:11.754Z,25.22
2018-09-06T15:57:40.126Z,25.12
2018-09-06T16:00:08.445Z,25.08
2018-09-06T16:02:36.710Z,25.42
2018-09-06T16:05:05.141Z,24.94
2018-09-06T16:07:33.481Z,25.03
2018-09-06T16:10:01.827Z,25.67
2018-09-06T16:12:30.126Z,25.71
2018-09-06T16:14:58.438Z,25.36
2018-09-06T16:17:26.974Z,25.27
2018-09-06T16:19:55.337Z,24.56
2018-09-06T16:22:23.697Z,24.33
2018-09-06T16:24:51.996Z,23.86
2018-09-06T16:27:20.300Z,23.78
2018-09-06T16:29:48.605Z,23.95
2018-09-06T16:32:16.895Z,24.22
2018-09-06T16:34:45.215Z,23.90
2018-09-06T16:37:13.557Z,23.56
2018-09-06T16:39:41.785Z,23.24
2018-09-06T16:42:10.070Z,23.39
2018-09-06T16:44:38.383Z,23.17
2018-09-06T16:47:06.691Z,23.38
2018-09-06T16:49:34.974Z,23.27
2018-09-06T16:52:03.260Z,23.00
2018-09-06T16:54:31.528Z,22.80
2018-09-06T16:57:00.802Z,22.66
2018-09-06T16:59:29.158Z,22.49
2018-09-06T17:01:57.517Z,22.58
2018-09-06T17:04:25.840Z,22.62
2018-09-06T17:06:54.117Z,22.47
2018-09-06T17:09:22.473Z,22.21
2018-09-06T17:11:50.769Z,22.14
2018-09-06T17:14:19.046Z,22.09
2018-09-06T17:16:47.325Z,22.16
2018-09-06T17:19:15.613Z,22.37
2018-09-06T17:21:43.903Z,22.20
2018-09-06T17:24:13.249Z,22.14
2018-09-06T17:26:41.530Z,21.94
2018-09-06T17:29:09.933Z,21.89
2018-09-06T17:31:38.224Z,21.69
2018-09-06T17:34:06.555Z,21.74
2018-09-06T17:36:34.818Z,21.65
2018-09-06T17:39:03.259Z,21.68
2018-09-06T17:41:31.494Z,21.51
2018-09-06T17:43:59.993Z,21.51
2018-09-06T17:46:28.267Z,21.40
2018-09-06T17:48:56.547Z,21.29
2018-09-06T17:51:24.872Z,21.25
2018-09-06T17:53:53.153Z,21.12
2018-09-06T17:56:21.460Z,20.95
2018-09-06T17:58:49.957Z,20.93
2018-09-06T18:01:29.914Z,20.87
2018-09-06T18:03:58.129Z,20.86
2018-09-06T18:06:26.412Z,20.71
2018-09-06T18:08:54.751Z,20.59
2018-09-06T18:11:23.034Z,20.56
2018-09-06T18:13:51.468Z,20.51
2018-09-06T18:16:20.054Z,20.51
2018-09-06T18:18:48.341Z,20.47
2018-09-06T18:21:16.997Z,20.38
2018-09-06T18:23:45.647Z,20.43
2018-09-06T18:26:13.945Z,20.41
2018-09-06T18:28:42.228Z,20.39
2018-09-06T18:31:11.625Z,20.32
2018-09-06T18:33:39.969Z,20.18
2018-09-06T18:36:08.329Z,20.11
2018-09-06T18:38:37.810Z,20.16
2018-09-06T18:41:06.189Z,20.11
2018-09-06T18:43:34.940Z,20.11
2018-09-06T18:46:05.435Z,20.12
2018-09-06T18:48:33.780Z,20.02
2018-09-06T18:51:04.701Z,20.03
2018-09-06T18:53:34.301Z,19.88
2018-09-06T18:56:02.707Z,19.85
2018-09-06T18:58:30.974Z,19.74
2018-09-06T19:00:59.261Z,19.79
2018-09-06T19:03:28.662Z,19.80
2018-09-06T19:05:56.938Z,19.82
2018-09-06T19:08:25.221Z,19.78
2018-09-06T19:10:53.528Z,19.67
2018-09-06T19:13:23.654Z,19.65
2018-09-06T19:15:51.961Z,19.62
2018-09-06T19:18:20.429Z,19.67
2018-09-06T19:20:48.681Z,19.73
2018-09-06T19:23:21.737Z,19.70
2018-09-06T19:25:51.010Z,19.64
2018-09-06T19:28:19.795Z,19.82
2018-09-06T19:30:48.176Z,19.82
2018-09-06T19:33:16.605Z,19.64
2018-09-06T19:35:46.025Z,19.73
2018-09-06T19:38:15.306Z,19.79
2018-09-06T19:40:43.632Z,19.79
2018-09-06T19:43:11.934Z,19.71
2018-09-06T19:45:41.202Z,19.73
2018-09-06T19:48:10.440Z,19.74
2018-09-06T19:50:39.629Z,19.82
2018-09-06T19:53:08.106Z,19.84
2018-09-06T19:55:36.445Z,19.99
2018-09-06T19:58:05.067Z,20.03
2018-09-06T20:00:33.619Z,20.21
2018-09-06T20:03:01.957Z,20.10
2018-09-06T20:05:30.306Z,20.14
2018-09-06T20:07:58.818Z,20.16
2018-09-06T20:10:27.069Z,20.30
2018-09-06T20:12:55.365Z,20.33
2018-09-06T20:15:23.677Z,20.41
2018-09-06T20:17:51.953Z,20.50
2018-09-06T20:20:20.373Z,20.55
2018-09-06T20:22:48.853Z,20.60
2018-09-06T20:25:17.212Z,20.60
2018-09-06T20:27:45.513Z,20.53
2018-09-06T20:30:13.889Z,20.67
2018-09-06T20:32:42.197Z,20.70
2018-09-06T20:35:10.518Z,20.75
2018-09-06T20:37:38.814Z,20.82
2018-09-06T20:40:07.093Z,20.69
2018-09-06T20:43:59.820Z,20.84
2018-09-06T20:46:28.152Z,20.71
2018-09-06T20:48:56.437Z,20.97
2018-09-06T20:51:24.726Z,20.95
2018-09-06T20:53:53.069Z,20.85
2018-09-06T20:56:21.378Z,20.69
2018-09-06T20:58:49.657Z,20.80
2018-09-06T21:01:18.097Z,21.02
2018-09-06T21:03:46.418Z,20.91
2018-09-06T21:06:14.793Z,20.89
2018-09-06T21:08:43.129Z,20.96
2018-09-06T21:11:11.412Z,21.01
2018-09-06T21:13:39.684Z,20.83
2018-09-06T21:16:08.256Z,20.85
2018-09-06T21:18:36.549Z,20.80
2018-09-06T21:21:04.861Z,20.84
2018-09-06T21:23:33.234Z,21.03
2018-09-06T21:26:01.441Z,21.04
2018-09-06T21:28:29.743Z,20.83
2018-09-06T21:30:58.033Z,20.91
2018-09-06T21:33:26.309Z,20.76
2018-09-06T21:35:55.611Z,20.72
2018-09-06T21:38:23.973Z,20.84
2018-09-06T21:40:52.270Z,20.67
2018-09-06T21:43:20.977Z,20.66
2018-09-06T21:45:49.252Z,20.69
2018-09-06T21:48:17.526Z,20.76
2018-09-06T21:50:45.989Z,20.72
2018-09-06T21:53:14.285Z,20.69
2018-09-06T21:55:43.658Z,20.65
2018-09-06T21:58:11.942Z,20.52
2018-09-06T22:00:40.265Z,20.67
2018-09-06T22:03:14.136Z,20.78
2018-09-06T22:05:42.439Z,20.83
2018-09-06T22:08:10.715Z,20.85
2018-09-06T22:10:38.997Z,20.52
2018-09-06T22:13:07.284Z,20.80
2018-09-06T22:15:35.785Z,20.68
2018-09-06T22:18:04.087Z,20.63
2018-09-06T22:20:32.377Z,20.75
2018-09-06T22:23:00.774Z,20.59
2018-09-06T22:25:29.037Z,20.49
2018-09-06T22:27:57.329Z,20.43
2018-09-06T22:30:25.633Z,20.48
2018-09-06T22:32:54.450Z,20.49
2018-09-06T22:35:22.709Z,20.49
2018-09-06T22:37:51.025Z,20.41
2018-09-06T22:40:19.557Z,20.47
2018-09-06T22:42:47.853Z,20.54
2018-09-06T22:45:16.300Z,20.58
2018-09-06T22:47:44.593Z,20.45
2018-09-06T22:50:12.909Z,20.30
2018-09-06T22:52:41.241Z,20.22
2018-09-06T22:55:09.544Z,20.32
2018-09-06T22:57:37.929Z,20.39
2018-09-06T23:00:06.633Z,20.30
2018-09-06T23:02:40.297Z,20.26
2018-09-06T23:05:08.575Z,20.36
2018-09-06T23:07:36.873Z,20.37
2018-09-06T23:10:07.199Z,20.31
2018-09-06T23:12:35.461Z,20.24
2018-09-06T23:15:03.814Z,20.19
2018-09-06T23:17:32.128Z,20.23
2018-09-06T23:20:00.494Z,20.17
2018-09-06T23:22:28.813Z,20.13
2018-09-06T23:24:57.101Z,20.04
2018-09-06T23:27:26.604Z,20.04
2018-09-06T23:29:55.565Z,20.04
2018-09-06T23:32:23.885Z,19.98
2018-09-06T23:34:52.170Z,19.82
2018-09-06T23:37:20.489Z,19.79
2018-09-06T23:39:48.932Z,19.79
2018-09-06T23:42:17.253Z,19.60
2018-09-06T23:44:45.554Z,19.55
2018-09-06T23:47:13.825Z,19.50
2018-09-06T23:49:42.361Z,19.33
2018-09-06T23:52:10.653Z,19.24
2018-09-06T23:54:39.030Z,19.24
2018-09-06T23:57:08.317Z,19.25
2018-09-06T23:59:36.638Z,19.18
